createdAt,value
2019-05-12T00:01:11.947Z,40.60
2019-05-12T00:03:43.700Z,40.40
2019-05-12T00:06:17.508Z,41.10
2019-05-12T00:08:48.909Z,40.60
2019-05-12T00:11:20.958Z,40.70
2019-05-12T00:13:52.705Z,40.70
2019-05-12T00:16:24.447Z,40.70
2019-05-12T00:18:58.389Z,40.80
2019-05-12T00:21:29.727Z,40.70
2019-05-12T00:24:11.774Z,40.90
2019-05-12T00:26:44.205Z,40.90
2019-05-12T00:29:18.343Z,41.00
2019-05-12T00:31:49.406Z,40.90
2019-05-12T00:34:21.231Z,41.10
2019-05-12T00:36:52.912Z,41.20
2019-05-12T00:39:24.611Z,41.20
2019-05-12T00:41:58.466Z,41.30
2019-05-12T00:44:29.669Z,41.30
2019-05-12T00:47:01.390Z,41.30
2019-05-12T00:49:33.106Z,41.30
2019-05-12T00:52:04.788Z,41.50
2019-05-12T00:54:37.592Z,41.40
2019-05-12T00:57:09.449Z,41.60
2019-05-12T00:59:41.206Z,41.60
2019-05-12T01:02:12.858Z,41.70
2019-05-12T01:04:44.597Z,41.80
2019-05-12T01:07:18.290Z,41.80
2019-05-12T01:09:49.694Z,41.80
2019-05-12T01:12:21.640Z,41.80
2019-05-12T01:14:55.190Z,41.80
2019-05-12T01:17:28.305Z,42.00
2019-05-12T01:20:00.272Z,42.00
2019-05-12T01:22:31.983Z,41.90
2019-05-12T01:25:03.793Z,42.60
2019-05-12T01:27:37.881Z,42.10
2019-05-12T01:30:10.600Z,42.10
2019-05-12T01:32:42.378Z,42.10
2019-05-12T01:35:18.523Z,42.10
2019-05-12T01:37:50.305Z,42.20
2019-05-12T01:40:22.076Z,42.10
2019-05-12T01:42:53.788Z,42.00
2019-05-12T01:45:25.489Z,42.00
2019-05-12T01:47:59.011Z,42.00
2019-05-12T01:50:30.697Z,42.20
2019-05-12T01:53:03.588Z,42.10
2019-05-12T01:55:35.275Z,42.10
2019-05-12T01:58:08.327Z,42.10
2019-05-12T02:00:40.364Z,42.10
2019-05-12T02:03:12.246Z,42.10
2019-05-12T02:05:48.512Z,42.10
2019-05-12T02:08:27.857Z,42.20
2019-05-12T02:11:18.345Z,42.30
2019-05-12T02:13:50.266Z,42.20
2019-05-12T02:16:22.123Z,42.10
2019-05-12T02:18:58.163Z,42.10
2019-05-12T02:21:29.627Z,42.20
2019-05-12T02:24:01.284Z,42.20
2019-05-12T02:26:32.966Z,42.30
2019-05-12T02:29:04.650Z,42.30
2019-05-12T02:31:39.326Z,42.30
2019-05-12T02:34:09.821Z,42.20
2019-05-12T02:36:44.774Z,42.30
2019-05-12T02:39:16.442Z,42.40
2019-05-12T02:41:48.148Z,42.40
2019-05-12T02:44:19.867Z,43.00
2019-05-12T02:46:51.571Z,42.50
2019-05-12T02:49:24.392Z,42.50
2019-05-12T02:51:56.260Z,42.50
2019-05-12T02:54:47.025Z,42.50
2019-05-12T02:57:04.457Z,42.40
2019-05-12T02:59:39.993Z,42.50
2019-05-12T03:02:14.198Z,42.50
2019-05-12T03:04:47.004Z,42.60
2019-05-12T03:07:25.478Z,42.60
2019-05-12T03:09:58.669Z,42.50
2019-05-12T03:12:30.404Z,42.50
2019-05-12T03:15:05.092Z,43.20
2019-05-12T03:17:35.823Z,42.70
2019-05-12T03:20:07.931Z,43.00
2019-05-12T03:22:39.585Z,42.70
2019-05-12T03:25:20.752Z,42.90
2019-05-12T03:27:44.989Z,43.00
2019-05-12T03:30:19.440Z,42.90
2019-05-12T03:32:50.673Z,42.90
2019-05-12T03:35:32.404Z,42.90
2019-05-12T03:37:55.902Z,43.10
2019-05-12T03:40:27.632Z,43.20
2019-05-12T03:42:59.441Z,43.00
2019-05-12T03:45:31.185Z,43.00
2019-05-12T03:48:04.329Z,43.20
2019-05-12T03:50:36.686Z,43.30
2019-05-12T03:53:11.103Z,43.20
2019-05-12T03:55:46.654Z,43.30
2019-05-12T03:58:16.461Z,43.30
2019-05-12T04:00:48.208Z,44.00
2019-05-12T04:03:19.876Z,43.40
2019-05-12T04:05:51.600Z,43.40
2019-05-12T04:08:24.592Z,43.40
2019-05-12T04:10:56.443Z,43.30
2019-05-12T04:13:29.248Z,43.40
2019-05-12T04:16:00.987Z,43.30
2019-05-12T04:18:34.933Z,43.40
2019-05-12T04:21:06.940Z,43.30
2019-05-12T04:23:38.623Z,43.40
2019-05-12T04:26:13.296Z,43.40
2019-05-12T04:28:45.525Z,43.40
2019-05-12T04:31:17.076Z,43.50
2019-05-12T04:33:48.757Z,43.50
2019-05-12T04:36:20.401Z,43.50
2019-05-12T04:38:55.270Z,43.60
2019-05-12T04:41:26.275Z,43.50
2019-05-12T04:43:58.166Z,43.50
2019-05-12T04:46:34.387Z,43.50
2019-05-12T04:49:05.462Z,43.60
2019-05-12T04:51:37.440Z,43.60
2019-05-12T04:54:10.943Z,43.70
2019-05-12T04:56:44.610Z,43.60
2019-05-12T04:59:16.200Z,43.70
2019-05-12T05:01:47.825Z,43.60
2019-05-12T05:04:19.508Z,43.60
2019-05-12T05:06:51.314Z,43.70
2019-05-12T05:09:24.574Z,43.70
2019-05-12T05:11:56.501Z,43.60
2019-05-12T05:14:28.187Z,43.60
2019-05-12T05:16:59.833Z,43.60
2019-05-12T05:19:33.611Z,43.70
2019-05-12T05:22:04.899Z,43.60
2019-05-12T05:24:36.597Z,43.60
2019-05-12T05:27:08.323Z,43.70
2019-05-12T05:29:40.073Z,43.70
2019-05-12T05:32:13.950Z,43.80
2019-05-12T05:34:52.796Z,44.50
2019-05-12T05:37:18.585Z,43.90
2019-05-12T05:39:50.392Z,44.10
2019-05-12T05:42:27.408Z,44.00
2019-05-12T05:44:55.449Z,44.00
2019-05-12T05:47:28.656Z,44.00
2019-05-12T05:50:00.499Z,44.10
2019-05-12T05:52:34.225Z,44.10
2019-05-12T05:55:14.862Z,43.90
2019-05-12T05:57:39.320Z,44.00
2019-05-12T06:00:17.583Z,44.10
2019-05-12T06:02:45.296Z,44.10
2019-05-12T06:05:20.021Z,44.50
2019-05-12T06:07:50.420Z,44.00
2019-05-12T06:10:34.807Z,43.90
2019-05-12T06:12:55.416Z,44.10
2019-05-12T06:15:29.830Z,43.90
2019-05-12T06:18:00.484Z,43.90
2019-05-12T06:20:37.422Z,43.80
2019-05-12T06:23:06.795Z,43.60
2019-05-12T06:25:49.300Z,43.60
2019-05-12T06:28:14.509Z,43.60
2019-05-12T06:30:49.851Z,43.80
2019-05-12T06:33:22.793Z,43.90
2019-05-12T06:35:54.328Z,43.70
2019-05-12T06:38:26.140Z,43.70
2019-05-12T06:40:58.382Z,43.70
2019-05-12T06:43:35.311Z,43.80
2019-05-12T06:46:03.700Z,43.90
2019-05-12T06:48:35.481Z,43.90
2019-05-12T06:51:09.246Z,44.00
2019-05-12T06:53:40.586Z,43.90
2019-05-12T06:56:16.947Z,43.90
2019-05-12T06:58:45.931Z,43.70
2019-05-12T07:01:19.508Z,43.80
2019-05-12T07:03:53.442Z,43.90
2019-05-12T07:06:26.608Z,43.90
2019-05-12T07:09:06.359Z,44.00
2019-05-12T07:11:42.483Z,43.90
2019-05-12T07:14:13.113Z,43.80
2019-05-12T07:16:39.997Z,43.80
2019-05-12T07:19:17.280Z,43.60
2019-05-12T07:21:50.757Z,43.40
2019-05-12T07:24:23.888Z,43.40
2019-05-12T07:27:04.113Z,43.30
2019-05-12T07:29:28.840Z,43.40
2019-05-12T07:32:07.204Z,43.40
2019-05-12T07:34:36.752Z,43.40
2019-05-12T07:37:08.527Z,43.20
2019-05-12T07:39:45.453Z,43.10
2019-05-12T07:42:15.369Z,43.00
2019-05-12T07:44:48.107Z,42.70
2019-05-12T07:47:27.416Z,42.50
2019-05-12T07:49:53.827Z,42.20
2019-05-12T07:52:25.596Z,42.30
2019-05-12T07:54:57.338Z,41.90
2019-05-12T07:57:29.043Z,41.70
2019-05-12T08:00:03.073Z,41.50
2019-05-12T08:02:35.710Z,41.40
2019-05-12T08:05:11.078Z,41.50
2019-05-12T08:07:41.293Z,41.50
2019-05-12T08:10:19.645Z,41.50
2019-05-12T08:12:51.166Z,41.60
2019-05-12T08:15:21.179Z,41.40
2019-05-12T08:17:55.367Z,41.40
2019-05-12T08:20:26.542Z,41.50
2019-05-12T08:22:59.508Z,41.50
2019-05-12T08:25:34.300Z,41.70
2019-05-12T08:28:14.765Z,41.60
2019-05-12T08:30:47.321Z,42.00
2019-05-12T08:33:15.201Z,41.50
2019-05-12T08:35:47.009Z,41.50
2019-05-12T08:38:18.877Z,41.40
2019-05-12T08:40:53.575Z,41.40
2019-05-12T08:43:24.328Z,41.20
2019-05-12T08:46:00.232Z,41.00
2019-05-12T08:48:29.545Z,40.90
2019-05-12T08:51:05.303Z,40.70
2019-05-12T08:53:35.002Z,40.50
2019-05-12T08:56:13.338Z,40.50
2019-05-12T08:58:50.439Z,40.20
2019-05-12T09:01:20.369Z,39.80
2019-05-12T09:03:50.601Z,39.80
2019-05-12T09:06:23.789Z,39.90
2019-05-12T09:08:56.220Z,39.60
2019-05-12T09:11:27.979Z,40.10
2019-05-12T09:14:00.968Z,39.40
2019-05-12T09:16:33.739Z,39.60
2019-05-12T09:19:10.141Z,39.60
2019-05-12T09:21:39.443Z,39.60
2019-05-12T09:24:21.525Z,39.30
2019-05-12T09:26:46.763Z,39.20
2019-05-12T09:29:18.492Z,39.80
2019-05-12T09:31:52.752Z,38.80
2019-05-12T09:34:25.367Z,37.90
2019-05-12T09:36:59.543Z,38.50
2019-05-12T09:39:33.982Z,38.50
2019-05-12T09:42:04.085Z,38.40
2019-05-12T09:44:35.962Z,38.20
2019-05-12T09:47:21.960Z,38.20
2019-05-12T09:49:41.353Z,38.00
2019-05-12T09:52:21.981Z,37.60
2019-05-12T09:54:46.708Z,36.80
2019-05-12T09:57:18.548Z,37.20
2019-05-12T09:59:57.284Z,37.50
2019-05-12T10:02:24.190Z,37.40
2019-05-12T10:05:00.539Z,37.50
2019-05-12T10:07:30.913Z,37.60
2019-05-12T10:10:03.645Z,37.90
2019-05-12T10:12:44.667Z,38.10
2019-05-12T10:15:10.058Z,38.20
2019-05-12T10:17:43.427Z,38.30
2019-05-12T10:20:15.650Z,37.20
2019-05-12T10:22:47.394Z,37.10
2019-05-12T10:25:23.304Z,37.90
2019-05-12T10:27:53.474Z,37.40
2019-05-12T10:30:25.351Z,37.80
2019-05-12T10:32:57.758Z,37.90
2019-05-12T10:35:29.633Z,37.30
2019-05-12T10:38:06.298Z,36.60
2019-05-12T10:40:35.068Z,36.40
2019-05-12T10:43:06.907Z,35.80
2019-05-12T10:45:38.637Z,35.00
2019-05-12T10:48:10.431Z,34.00
2019-05-12T10:50:44.217Z,33.60
2019-05-12T10:53:17.862Z,34.10
2019-05-12T10:55:49.252Z,33.90
2019-05-12T10:58:20.943Z,34.90
2019-05-12T11:00:53.752Z,34.30
2019-05-12T11:03:26.123Z,33.80
2019-05-12T11:06:02.497Z,33.10
2019-05-12T11:08:33.289Z,32.90
2019-05-12T11:11:05.245Z,32.20
2019-05-12T11:13:40.379Z,31.60
2019-05-12T11:16:13.998Z,31.20
2019-05-12T11:18:44.756Z,31.40
2019-05-12T11:21:16.626Z,31.20
2019-05-12T11:23:48.422Z,30.90
2019-05-12T11:26:20.166Z,30.60
2019-05-12T11:28:53.266Z,30.50
2019-05-12T11:31:25.209Z,30.40
2019-05-12T11:33:56.914Z,30.20
2019-05-12T11:36:29.326Z,30.00
2019-05-12T11:39:01.072Z,29.80
2019-05-12T11:41:33.346Z,30.00
2019-05-12T11:44:05.455Z,30.00
2019-05-12T11:46:39.020Z,30.00
2019-05-12T11:49:10.810Z,30.40
2019-05-12T11:51:42.561Z,31.30
2019-05-12T11:54:15.418Z,31.90
2019-05-12T11:56:50.350Z,31.80
2019-05-12T11:59:23.588Z,31.70
2019-05-12T12:01:56.131Z,31.80
2019-05-12T12:04:45.533Z,30.80
2019-05-12T12:07:18.170Z,30.00
2019-05-12T12:09:56.218Z,30.40
2019-05-12T12:12:25.399Z,30.60
2019-05-12T12:14:57.099Z,30.50
2019-05-12T12:17:35.100Z,30.90
2019-05-12T12:20:03.713Z,30.40
2019-05-12T12:22:46.228Z,29.70
2019-05-12T12:25:29.033Z,29.60
2019-05-12T12:28:01.331Z,29.30
2019-05-12T12:30:34.189Z,29.00
2019-05-12T12:33:06.580Z,28.90
2019-05-12T12:35:38.900Z,28.20
2019-05-12T12:38:11.321Z,28.00
2019-05-12T12:40:44.213Z,28.00
2019-05-12T12:43:16.859Z,27.70
2019-05-12T12:46:01.347Z,27.50
2019-05-12T12:48:35.521Z,26.60
2019-05-12T12:51:14.694Z,25.90
2019-05-12T12:53:44.942Z,24.70
2019-05-12T12:56:27.675Z,24.80
2019-05-12T12:58:52.264Z,24.80
2019-05-12T13:01:28.572Z,24.30
2019-05-12T13:03:59.183Z,23.90
2019-05-12T13:06:34.418Z,24.50
2019-05-12T13:09:18.393Z,24.50
2019-05-12T13:11:44.285Z,25.30
2019-05-12T13:14:15.418Z,25.50
2019-05-12T13:16:49.304Z,25.40
2019-05-12T13:19:23.817Z,25.20
2019-05-12T13:21:55.958Z,25.60
2019-05-12T13:24:29.321Z,25.00
2019-05-12T13:27:03.453Z,24.70
2019-05-12T13:29:39.791Z,24.60
2019-05-12T13:32:09.209Z,24.50
2019-05-12T13:34:42.668Z,24.50
2019-05-12T13:37:19.180Z,24.40
2019-05-12T13:39:56.789Z,24.60
2019-05-12T13:42:24.044Z,24.60
2019-05-12T13:44:55.228Z,24.70
2019-05-12T13:47:28.970Z,24.80
2019-05-12T13:50:03.897Z,24.90
2019-05-12T13:52:35.140Z,25.00
2019-05-12T13:55:07.722Z,25.20
2019-05-12T13:57:46.710Z,25.40
2019-05-12T14:00:14.189Z,25.40
2019-05-12T14:02:48.824Z,25.50
2019-05-12T14:05:19.684Z,25.40
2019-05-12T14:07:55.660Z,25.50
2019-05-12T14:10:25.020Z,25.50
2019-05-12T14:12:56.748Z,25.20
2019-05-12T14:15:28.561Z,25.40
2019-05-12T14:18:00.248Z,25.60
2019-05-12T14:20:34.430Z,25.60
2019-05-12T14:23:05.661Z,25.60
2019-05-12T14:25:37.398Z,26.10
2019-05-12T14:28:09.590Z,25.80
2019-05-12T14:30:49.618Z,25.70
2019-05-12T14:33:18.139Z,25.70
2019-05-12T14:35:48.549Z,25.80
2019-05-12T14:38:25.431Z,25.70
2019-05-12T14:40:54.087Z,25.60
2019-05-12T14:43:26.037Z,25.70
2019-05-12T14:46:00.162Z,25.50
2019-05-12T14:48:33.196Z,25.50
2019-05-12T14:51:04.869Z,25.80
2019-05-12T14:53:38.213Z,25.70
2019-05-12T14:56:10.056Z,25.80
2019-05-12T14:58:44.098Z,25.90
2019-05-12T15:01:15.268Z,26.00
2019-05-12T15:03:47.711Z,25.90
2019-05-12T15:06:25.665Z,25.90
2019-05-12T15:08:54.215Z,26.00
2019-05-12T15:11:26.252Z,26.00
2019-05-12T15:13:58.020Z,26.20
2019-05-12T15:16:31.813Z,26.30
2019-05-12T15:19:03.514Z,26.20
2019-05-12T15:21:35.246Z,26.40
2019-05-12T15:24:09.268Z,26.40
2019-05-12T15:26:40.763Z,26.50
2019-05-12T15:29:18.036Z,26.50
2019-05-12T15:31:53.242Z,26.60
2019-05-12T15:34:19.675Z,26.70
2019-05-12T15:36:53.835Z,26.90
2019-05-12T15:39:25.970Z,27.00
2019-05-12T15:41:58.736Z,26.90
2019-05-12T15:44:32.336Z,27.00
2019-05-12T15:47:04.276Z,27.10
2019-05-12T15:49:36.090Z,27.20
2019-05-12T15:52:07.920Z,27.30
2019-05-12T15:54:45.702Z,27.40
2019-05-12T15:57:13.646Z,27.40
2019-05-12T15:59:47.230Z,27.30
2019-05-12T16:02:19.187Z,27.20
2019-05-12T16:04:50.882Z,27.10
2019-05-12T16:07:24.318Z,27.20
2019-05-12T16:09:56.245Z,27.30
2019-05-12T16:12:28.068Z,27.30
2019-05-12T16:14:59.849Z,27.30
2019-05-12T16:17:34.110Z,27.30
2019-05-12T16:20:05.576Z,27.40
2019-05-12T16:22:44.462Z,27.50
2019-05-12T16:25:14.799Z,27.50
2019-05-12T16:27:45.863Z,27.40
2019-05-12T16:30:20.409Z,27.30
2019-05-12T16:32:55.042Z,27.00
2019-05-12T16:35:31.386Z,26.90
2019-05-12T16:38:05.869Z,26.80
2019-05-12T16:40:34.457Z,26.70
2019-05-12T16:43:06.331Z,26.70
2019-05-12T16:45:38.114Z,26.80
2019-05-12T16:48:26.654Z,26.70
2019-05-12T16:50:43.818Z,26.60
2019-05-12T16:53:21.842Z,26.50
2019-05-12T16:55:50.052Z,26.50
2019-05-12T16:58:24.416Z,26.50
2019-05-12T17:00:55.715Z,26.70
2019-05-12T17:03:27.475Z,26.70
2019-05-12T17:05:59.278Z,26.60
2019-05-12T17:08:31.038Z,26.70
2019-05-12T17:11:21.832Z,26.90
2019-05-12T17:13:36.355Z,27.00
2019-05-12T17:16:08.194Z,27.20
2019-05-12T17:18:39.967Z,27.30
2019-05-12T17:21:14.101Z,27.30
2019-05-12T17:23:45.414Z,27.40
2019-05-12T17:26:17.421Z,27.40
2019-05-12T17:28:49.226Z,27.40
2019-05-12T17:31:21.086Z,27.40
2019-05-12T17:33:54.359Z,27.50
2019-05-12T17:36:26.380Z,27.50
2019-05-12T17:38:58.185Z,28.10
2019-05-12T17:41:40.518Z,27.60
2019-05-12T17:44:07.021Z,27.60
2019-05-12T17:46:39.705Z,27.60
2019-05-12T17:49:15.687Z,27.70
2019-05-12T17:51:45.146Z,27.70
2019-05-12T17:54:21.679Z,27.80
2019-05-12T17:56:50.612Z,27.90
2019-05-12T17:59:27.619Z,28.50
2019-05-12T18:01:57.513Z,27.90
2019-05-12T18:04:31.050Z,28.10
2019-05-12T18:07:06.039Z,28.10
2019-05-12T18:09:36.550Z,28.10
2019-05-12T18:12:08.403Z,28.30
2019-05-12T18:14:46.679Z,28.30
2019-05-12T18:17:14.324Z,28.40
2019-05-12T18:19:50.268Z,28.50
2019-05-12T18:22:19.850Z,28.50
2019-05-12T18:24:54.170Z,28.60
2019-05-12T18:27:25.365Z,28.70
2019-05-12T18:29:57.218Z,28.70
2019-05-12T18:32:28.984Z,28.70
2019-05-12T18:35:00.738Z,28.70
2019-05-12T18:37:34.428Z,28.60
2019-05-12T18:40:07.268Z,28.60
2019-05-12T18:42:39.061Z,28.70
2019-05-12T18:45:12.952Z,29.00
2019-05-12T18:47:44.650Z,28.90
2019-05-12T18:50:20.591Z,29.00
2019-05-12T18:52:50.663Z,29.00
2019-05-12T18:55:29.236Z,29.10
2019-05-12T18:57:57.902Z,29.10
2019-05-12T19:00:31.032Z,29.10
2019-05-12T19:03:08.053Z,29.50
2019-05-12T19:05:36.316Z,29.00
2019-05-12T19:08:08.190Z,29.10
2019-05-12T19:10:44.362Z,29.20
2019-05-12T19:13:13.766Z,29.20
2019-05-12T19:15:45.846Z,29.30
2019-05-12T19:18:18.458Z,29.20
2019-05-12T19:20:54.016Z,29.30
2019-05-12T19:23:34.795Z,29.20
2019-05-12T19:25:59.723Z,29.20
2019-05-12T19:28:31.606Z,29.10
2019-05-12T19:31:10.093Z,29.30
2019-05-12T19:33:44.039Z,29.30
2019-05-12T19:36:18.671Z,29.70
2019-05-12T19:38:54.978Z,29.20
2019-05-12T19:41:30.788Z,29.40
2019-05-12T19:44:06.378Z,29.20
2019-05-12T19:46:39.893Z,29.30
2019-05-12T19:49:11.875Z,29.30
2019-05-12T19:51:44.008Z,29.30
2019-05-12T19:54:27.499Z,29.20
2019-05-12T19:56:53.751Z,29.50
2019-05-12T19:59:27.178Z,29.50
2019-05-12T20:01:59.295Z,29.40
2019-05-12T20:04:36.521Z,29.50
2019-05-12T20:07:08.301Z,29.50
2019-05-12T20:09:46.140Z,29.60
2019-05-12T20:12:19.020Z,29.60
2019-05-12T20:14:51.074Z,29.60
2019-05-12T20:17:24.345Z,29.70
2019-05-12T20:19:56.455Z,29.70
2019-05-12T20:22:28.452Z,29.80
2019-05-12T20:25:00.213Z,29.90
2019-05-12T20:27:34.532Z,29.90
2019-05-12T20:30:17.130Z,30.00
2019-05-12T20:32:43.498Z,30.00
2019-05-12T20:35:15.225Z,30.00
2019-05-12T20:37:53.070Z,30.00
2019-05-12T20:40:20.493Z,30.70
2019-05-12T20:43:07.436Z,30.00
2019-05-12T20:45:26.069Z,30.20
2019-05-12T20:47:57.841Z,30.30
2019-05-12T20:50:32.501Z,30.30
2019-05-12T20:53:03.897Z,30.20
2019-05-12T20:55:41.199Z,30.30
2019-05-12T20:58:09.370Z,30.50
2019-05-12T21:00:45.640Z,30.60
2019-05-12T21:03:15.687Z,30.50
2019-05-12T21:05:50.844Z,30.60
2019-05-12T21:08:23.452Z,30.60
2019-05-12T21:10:56.547Z,30.70
2019-05-12T21:13:31.849Z,30.80
2019-05-12T21:16:15.761Z,30.80
2019-05-12T21:18:46.900Z,30.90
2019-05-12T21:21:10.336Z,31.00
2019-05-12T21:23:45.727Z,31.10
2019-05-12T21:26:17.367Z,31.10
2019-05-12T21:28:50.965Z,31.30
2019-05-12T21:31:28.958Z,31.30
2019-05-12T21:33:56.225Z,31.40
2019-05-12T21:36:29.986Z,31.70
2019-05-12T21:39:08.392Z,31.60
2019-05-12T21:41:35.213Z,31.80
2019-05-12T21:44:11.174Z,32.00
2019-05-12T21:46:47.392Z,32.00
2019-05-12T21:49:15.502Z,31.80
2019-05-12T21:51:50.528Z,32.10
2019-05-12T21:54:21.261Z,32.00
2019-05-12T21:56:54.255Z,32.20
2019-05-12T21:59:34.590Z,32.10
2019-05-12T22:02:04.107Z,32.30
2019-05-12T22:04:41.387Z,32.30
2019-05-12T22:07:08.410Z,32.30
2019-05-12T22:09:45.595Z,32.30
2019-05-12T22:12:13.774Z,32.90
2019-05-12T22:14:49.130Z,32.60
2019-05-12T22:17:20.984Z,32.80
2019-05-12T22:19:53.579Z,32.70
2019-05-12T22:22:29.786Z,32.70
2019-05-12T22:25:00.090Z,32.80
2019-05-12T22:27:31.947Z,32.80
2019-05-12T22:30:04.380Z,32.80
2019-05-12T22:32:36.358Z,32.80
2019-05-12T22:35:13.294Z,32.80
2019-05-12T22:37:42.185Z,32.90
2019-05-12T22:40:19.095Z,32.90
2019-05-12T22:42:50.611Z,32.90
2019-05-12T22:45:21.338Z,33.00
2019-05-12T22:47:58.943Z,32.90
2019-05-12T22:50:33.020Z,33.00
2019-05-12T22:53:04.937Z,33.10
2019-05-12T22:55:36.881Z,33.10
2019-05-12T22:58:10.834Z,33.20
2019-05-12T23:00:44.406Z,33.20
2019-05-12T23:03:16.377Z,33.90
2019-05-12T23:05:50.601Z,33.60
2019-05-12T23:08:21.569Z,33.60
2019-05-12T23:10:55.909Z,33.80
2019-05-12T23:13:32.218Z,34.40
2019-05-12T23:16:03.446Z,33.80
2019-05-12T23:18:35.168Z,33.90
2019-05-12T23:21:13.503Z,34.00
2019-05-12T23:23:40.375Z,34.20
2019-05-12T23:26:13.864Z,34.70
2019-05-12T23:28:48.726Z,34.20
2019-05-12T23:31:19.510Z,34.50
2019-05-12T23:33:54.349Z,34.20
2019-05-12T23:36:35.593Z,34.40
2019-05-12T23:39:00.661Z,34.70
2019-05-12T23:41:34.388Z,34.80
2019-05-12T23:44:08.110Z,34.80
2019-05-12T23:46:39.842Z,34.70
2019-05-12T23:49:14.336Z,34.30
2019-05-12T23:51:46.333Z,35.00
2019-05-12T23:54:18.018Z,35.10
2019-05-12T23:56:49.837Z,35.30
2019-05-12T23:59:23.830Z,35.20
